createdAt,value
2022-08-12T00:00:36.587Z,92.00
2022-08-12T00:03:23.409Z,91.80
2022-08-12T00:06:10.535Z,92.00
2022-08-12T00:08:58.477Z,91.80
2022-08-12T00:11:47.215Z,91.90
2022-08-12T00:14:33.865Z,92.00
2022-08-12T00:17:23.086Z,91.10
2022-08-12T00:20:10.500Z,91.00
2022-08-12T00:22:59.405Z,91.10
2022-08-12T00:26:20.904Z,90.70
2022-08-12T00:29:14.793Z,91.30
2022-08-12T00:32:01.684Z,91.10
2022-08-12T00:34:51.938Z,90.80
2022-08-12T00:37:39.642Z,90.60
2022-08-12T00:40:27.971Z,90.90
2022-08-12T00:42:58.107Z,90.80
2022-08-12T00:45:27.281Z,90.80
2022-08-12T00:47:55.825Z,90.50
2022-08-12T00:50:25.409Z,89.70
2022-08-12T00:52:54.194Z,90.00
2022-08-12T00:55:22.951Z,89.80
2022-08-12T00:57:51.961Z,90.10
2022-08-12T01:00:23.522Z,89.60
2022-08-12T01:02:54.081Z,90.00
2022-08-12T01:05:42.472Z,90.50
2022-08-12T01:08:29.700Z,89.60
2022-08-12T01:11:17.081Z,87.90
2022-08-12T01:13:48.686Z,88.40
2022-08-12T01:16:23.605Z,88.00
2022-08-12T01:18:53.405Z,88.50
2022-08-12T01:21:40.328Z,87.90
2022-08-12T01:24:31.452Z,88.90
2022-08-12T01:27:01.547Z,87.60
2022-08-12T01:29:36.016Z,87.90
2022-08-12T01:32:11.757Z,88.60
2022-08-12T01:34:47.988Z,87.80
2022-08-12T01:37:17.848Z,87.40
2022-08-12T01:40:31.437Z,86.50
2022-08-12T01:42:47.055Z,86.20
2022-08-12T01:45:18.602Z,86.10
2022-08-12T01:47:58.536Z,86.30
2022-08-12T01:50:34.899Z,86.40
2022-08-12T01:53:11.608Z,87.20
2022-08-12T01:55:44.455Z,86.70
2022-08-12T01:58:12.970Z,86.70
2022-08-12T02:00:55.392Z,86.70
2022-08-12T02:04:06.349Z,88.10
2022-08-12T02:07:11.439Z,85.60
2022-08-12T02:10:06.231Z,85.80
2022-08-12T02:12:35.754Z,86.10
2022-08-12T02:15:04.273Z,85.70
2022-08-12T02:17:54.615Z,86.30
2022-08-12T02:20:35.330Z,85.80
2022-08-12T02:23:24.477Z,86.60
2022-08-12T02:25:56.092Z,87.40
2022-08-12T02:28:24.940Z,86.70
2022-08-12T02:30:53.485Z,86.70
2022-08-12T02:33:22.406Z,87.30
2022-08-12T02:35:52.679Z,87.20
2022-08-12T02:38:22.386Z,87.00
2022-08-12T02:40:53.676Z,85.70
2022-08-12T02:43:28.698Z,86.50
2022-08-12T02:46:02.986Z,85.20
2022-08-12T02:48:37.338Z,84.80
2022-08-12T02:51:07.587Z,86.60
2022-08-12T02:53:37.626Z,85.30
2022-08-12T02:56:06.824Z,83.50
2022-08-12T02:58:36.694Z,83.90
2022-08-12T03:01:12.845Z,82.40
2022-08-12T03:03:42.536Z,82.90
2022-08-12T03:06:17.194Z,82.00
2022-08-12T03:08:51.851Z,81.60
2022-08-12T03:11:35.299Z,81.50
2022-08-12T03:14:12.848Z,81.10
2022-08-12T03:16:41.972Z,83.40
2022-08-12T03:19:10.486Z,82.80
2022-08-12T03:21:54.660Z,81.00
2022-08-12T03:24:28.657Z,81.60
2022-08-12T03:27:00.535Z,83.30
2022-08-12T03:29:32.210Z,83.60
2022-08-12T03:32:35.915Z,81.80
2022-08-12T03:35:08.434Z,82.40
2022-08-12T03:37:39.266Z,80.70
2022-08-12T03:40:10.749Z,81.60
2022-08-12T03:42:42.138Z,81.50
2022-08-12T03:45:52.075Z,82.50
2022-08-12T03:48:40.338Z,81.10
2022-08-12T03:51:27.766Z,80.30
2022-08-12T03:54:15.193Z,80.90
2022-08-12T03:57:02.039Z,82.50
2022-08-12T03:59:48.836Z,82.00
2022-08-12T04:02:17.476Z,82.50
2022-08-12T04:04:49.642Z,83.70
2022-08-12T04:07:18.696Z,82.50
2022-08-12T04:09:48.029Z,81.40
2022-08-12T04:12:34.762Z,82.70
2022-08-12T04:15:04.251Z,81.20
2022-08-12T04:17:33.236Z,82.40
2022-08-12T04:20:01.896Z,81.80
2022-08-12T04:22:31.626Z,81.10
2022-08-12T04:25:03.872Z,83.20
2022-08-12T04:27:32.968Z,81.40
2022-08-12T04:30:31.074Z,81.00
2022-08-12T04:32:51.970Z,81.50
2022-08-12T04:35:20.613Z,81.90
2022-08-12T04:38:00.368Z,82.20
2022-08-12T04:40:33.738Z,81.90
2022-08-12T04:43:02.530Z,81.40
2022-08-12T04:45:32.179Z,81.60
2022-08-12T04:48:00.697Z,81.70
2022-08-12T04:50:36.323Z,82.50
2022-08-12T04:53:08.695Z,83.20
2022-08-12T04:55:39.923Z,82.70
2022-08-12T04:58:08.885Z,82.30
2022-08-12T05:00:39.230Z,81.50
2022-08-12T05:03:08.526Z,81.10
2022-08-12T05:05:38.117Z,81.60
2022-08-12T05:08:09.936Z,81.60
2022-08-12T05:10:38.433Z,82.50
2022-08-12T05:13:12.485Z,81.70
2022-08-12T05:15:47.657Z,82.70
2022-08-12T05:18:30.120Z,82.90
2022-08-12T05:21:00.166Z,83.30
2022-08-12T05:23:29.103Z,82.40
2022-08-12T05:25:58.173Z,81.70
2022-08-12T05:28:28.056Z,81.30
2022-08-12T05:30:56.938Z,82.10
2022-08-12T05:33:34.369Z,82.50
2022-08-12T05:36:03.074Z,82.40
2022-08-12T05:38:49.543Z,81.70
2022-08-12T05:41:21.542Z,81.90
2022-08-12T05:43:53.232Z,82.10
2022-08-12T05:46:22.476Z,81.40
2022-08-12T05:48:51.674Z,81.00
2022-08-12T05:51:20.343Z,81.60
2022-08-12T05:53:49.525Z,81.60
2022-08-12T05:56:22.886Z,81.20
2022-08-12T05:58:52.748Z,81.60
2022-08-12T06:02:12.153Z,82.40
2022-08-12T06:04:11.033Z,82.70
2022-08-12T06:06:52.396Z,82.90
2022-08-12T06:09:21.045Z,83.10
2022-08-12T06:11:59.780Z,82.50
2022-08-12T06:14:38.791Z,82.80
2022-08-12T06:17:10.145Z,83.30
2022-08-12T06:20:28.418Z,83.40
2022-08-12T06:22:27.839Z,83.80
2022-08-12T06:24:56.529Z,83.60
2022-08-12T06:27:25.418Z,84.10
2022-08-12T06:30:09.343Z,83.50
2022-08-12T06:32:51.777Z,82.40
2022-08-12T06:35:47.748Z,82.40
2022-08-12T06:38:18.769Z,82.20
2022-08-12T06:41:06.447Z,81.70
2022-08-12T06:44:04.610Z,82.70
2022-08-12T06:46:25.149Z,81.90
2022-08-12T06:48:57.613Z,82.80
2022-08-12T06:51:27.709Z,82.70
2022-08-12T06:53:59.321Z,82.00
2022-08-12T06:56:59.701Z,83.00
2022-08-12T06:59:16.817Z,82.20
2022-08-12T07:01:51.074Z,81.10
2022-08-12T07:04:37.936Z,81.10
2022-08-12T07:07:08.805Z,81.60
2022-08-12T07:10:04.540Z,82.00
2022-08-12T07:12:28.723Z,81.80
2022-08-12T07:14:59.628Z,81.10
2022-08-12T07:17:38.339Z,82.00
2022-08-12T07:20:20.131Z,81.60
2022-08-12T07:22:59.390Z,81.10
2022-08-12T07:25:40.865Z,80.90
2022-08-12T07:28:16.797Z,81.40
2022-08-12T07:30:46.738Z,81.50
2022-08-12T07:33:17.847Z,82.30
2022-08-12T07:35:48.962Z,82.50
2022-08-12T07:38:29.565Z,82.00
2022-08-12T07:41:00.495Z,81.60
2022-08-12T07:43:30.039Z,82.50
2022-08-12T07:45:58.950Z,81.60
2022-08-12T07:48:28.034Z,81.90
2022-08-12T07:50:56.577Z,81.50
2022-08-12T07:53:25.191Z,81.50
2022-08-12T07:55:54.163Z,81.30
2022-08-12T07:58:25.197Z,81.60
2022-08-12T08:01:01.554Z,81.80
2022-08-12T08:03:33.270Z,81.80
2022-08-12T08:06:01.906Z,81.80
2022-08-12T08:08:30.667Z,82.20
2022-08-12T08:11:18.696Z,82.10
2022-08-12T08:13:49.012Z,81.00
2022-08-12T08:16:17.522Z,82.10
2022-08-12T08:18:46.050Z,81.90
2022-08-12T08:21:16.806Z,81.70
2022-08-12T08:24:05.246Z,82.40
2022-08-12T08:26:34.035Z,82.30
2022-08-12T08:29:02.532Z,82.30
2022-08-12T08:31:32.866Z,82.10
2022-08-12T08:34:33.765Z,81.80
2022-08-12T08:36:53.430Z,81.80
2022-08-12T08:39:28.555Z,82.70
2022-08-12T08:42:18.362Z,81.70
2022-08-12T08:44:58.187Z,82.00
2022-08-12T08:47:27.533Z,81.40
2022-08-12T08:50:02.029Z,82.30
2022-08-12T08:52:39.399Z,82.10
2022-08-12T08:55:14.953Z,81.60
2022-08-12T08:57:47.251Z,81.70
2022-08-12T09:00:17.012Z,81.70
2022-08-12T09:02:49.526Z,82.10
2022-08-12T09:08:27.657Z,82.30
2022-08-12T09:11:00.081Z,82.30
2022-08-12T09:14:11.289Z,82.50
2022-08-12T09:16:24.371Z,82.90
2022-08-12T09:18:54.027Z,82.90
2022-08-12T09:24:11.400Z,82.20
2022-08-12T09:26:46.115Z,82.30
2022-08-12T09:29:16.343Z,82.50
2022-08-12T09:32:07.889Z,82.70
2022-08-12T09:34:37.718Z,82.90
2022-08-12T09:37:19.703Z,83.00
2022-08-12T09:40:04.395Z,82.20
2022-08-12T09:46:20.063Z,82.90
2022-08-12T09:48:40.059Z,82.20
2022-08-12T09:51:21.786Z,82.10
2022-08-12T09:54:06.797Z,83.00
2022-08-12T09:57:02.255Z,83.40
2022-08-12T10:00:13.329Z,82.00
2022-08-12T10:02:44.405Z,82.40
2022-08-12T10:05:13.083Z,82.70
2022-08-12T10:07:42.776Z,83.10
2022-08-12T10:10:22.987Z,82.60
2022-08-12T10:13:13.763Z,81.70
2022-08-12T10:16:02.085Z,81.10
2022-08-12T10:18:35.334Z,81.80
2022-08-12T10:21:13.293Z,82.50
2022-08-12T10:23:46.175Z,82.70
2022-08-12T10:26:38.999Z,81.90
2022-08-12T10:30:40.769Z,83.60
2022-08-12T10:32:43.673Z,82.00
2022-08-12T10:35:11.179Z,83.40
2022-08-12T10:38:38.184Z,82.90
2022-08-12T10:40:33.256Z,81.80
2022-08-12T10:43:20.891Z,82.60
2022-08-12T10:45:50.204Z,82.20
2022-08-12T10:48:33.190Z,82.20
2022-08-12T10:52:02.930Z,83.30
2022-08-12T10:54:00.569Z,82.80
2022-08-12T10:56:34.633Z,83.10
2022-08-12T10:59:10.484Z,82.90
2022-08-12T11:04:14.439Z,83.10
2022-08-12T11:04:44.120Z,83.30
2022-08-12T11:08:36.554Z,83.50
2022-08-12T11:10:10.252Z,83.70
2022-08-12T11:12:59.332Z,83.70
2022-08-12T11:15:32.833Z,84.00
2022-08-12T11:18:18.552Z,84.00
2022-08-12T11:20:49.198Z,84.20
2022-08-12T11:23:20.816Z,84.50
2022-08-12T11:25:57.648Z,84.60
2022-08-12T11:28:33.874Z,84.70
2022-08-12T11:31:03.971Z,84.80
2022-08-12T11:34:06.822Z,84.80
2022-08-12T11:36:21.910Z,84.80
2022-08-12T11:38:51.901Z,84.80
2022-08-12T11:41:31.131Z,85.00
2022-08-12T11:44:35.530Z,85.20
2022-08-12T11:46:53.084Z,85.40
2022-08-12T11:49:31.328Z,85.50
2022-08-12T11:52:03.982Z,85.60
2022-08-12T11:54:33.431Z,85.70
2022-08-12T11:57:02.948Z,85.70
2022-08-12T12:02:39.808Z,85.90
2022-08-12T12:05:09.518Z,85.90
2022-08-12T12:08:40.726Z,86.10
2022-08-12T12:10:30.197Z,86.10
2022-08-12T12:12:58.708Z,86.20
2022-08-12T12:15:40.846Z,86.40
2022-08-12T12:18:30.877Z,86.40
2022-08-12T12:21:01.083Z,86.40
2022-08-12T12:23:30.994Z,86.90
2022-08-12T12:26:07.888Z,86.70
2022-08-12T12:28:39.460Z,86.80
2022-08-12T12:31:14.827Z,86.80
2022-08-12T12:33:58.735Z,86.80
2022-08-12T12:36:30.140Z,87.00
2022-08-12T12:39:00.498Z,87.00
2022-08-12T12:42:43.644Z,87.10
2022-08-12T12:44:25.958Z,87.10
2022-08-12T12:47:28.830Z,87.10
2022-08-12T12:49:56.453Z,87.10
2022-08-12T12:52:26.753Z,87.50
2022-08-12T12:54:59.665Z,87.40
2022-08-12T12:57:36.060Z,87.80
2022-08-12T13:00:17.927Z,87.90
2022-08-12T13:02:59.556Z,87.90
2022-08-12T13:05:42.206Z,88.60
2022-08-12T13:08:35.445Z,88.70
2022-08-12T13:11:05.891Z,88.60
2022-08-12T13:14:10.406Z,88.20
2022-08-12T13:16:30.783Z,88.30
2022-08-12T13:18:59.300Z,88.50
2022-08-12T13:21:33.189Z,88.60
2022-08-12T13:24:09.915Z,88.50
2022-08-12T13:26:41.119Z,88.60
2022-08-12T13:29:11.155Z,88.50
2022-08-12T13:31:46.622Z,88.60
2022-08-12T13:34:34.487Z,88.60
2022-08-12T13:37:09.073Z,88.60
2022-08-12T13:39:39.932Z,88.80
2022-08-12T13:42:13.559Z,89.10
2022-08-12T13:44:43.747Z,89.40
2022-08-12T13:47:20.096Z,89.90
2022-08-12T13:49:54.941Z,89.30
2022-08-12T13:52:25.657Z,89.60
2022-08-12T13:54:56.573Z,89.50
2022-08-12T13:57:27.383Z,89.20
2022-08-12T14:00:00.778Z,89.30
2022-08-12T14:02:30.383Z,89.40
2022-08-12T14:04:59.032Z,89.50
2022-08-12T14:07:28.080Z,89.60
2022-08-12T14:10:32.608Z,89.20
2022-08-12T14:13:02.743Z,89.70
2022-08-12T14:15:36.771Z,90.00
2022-08-12T14:18:19.594Z,90.00
2022-08-12T14:20:49.531Z,90.00
2022-08-12T14:24:05.158Z,90.00
2022-08-12T14:26:11.747Z,90.40
2022-08-12T14:28:45.426Z,90.30
2022-08-12T14:31:31.819Z,90.40
2022-08-12T14:34:04.828Z,90.90
2022-08-12T14:36:34.213Z,91.00
2022-08-12T14:39:06.626Z,91.30
2022-08-12T14:41:37.193Z,91.20
2022-08-12T14:45:01.031Z,91.10
2022-08-12T14:47:07.758Z,91.10
2022-08-12T14:50:34.274Z,91.00
2022-08-12T14:53:11.577Z,91.40
2022-08-12T14:58:04.521Z,91.90
2022-08-12T15:00:53.619Z,92.10
2022-08-12T15:03:52.130Z,91.80
2022-08-12T15:06:43.801Z,91.70
2022-08-12T15:09:08.045Z,91.90
2022-08-12T15:11:55.651Z,92.00
2022-08-12T15:14:30.819Z,92.30
2022-08-12T15:17:00.097Z,91.70
2022-08-12T15:20:11.590Z,92.40
2022-08-12T15:22:37.830Z,92.00
2022-08-12T15:25:08.141Z,93.00
2022-08-12T15:28:20.467Z,93.10
2022-08-12T15:30:33.851Z,92.90
2022-08-12T15:33:12.293Z,92.90
2022-08-12T15:35:52.076Z,93.10
2022-08-12T15:38:22.997Z,92.80
2022-08-12T15:40:54.362Z,92.90
2022-08-12T15:44:16.334Z,92.60
2022-08-12T15:46:14.818Z,93.00
2022-08-12T15:48:46.860Z,92.60
2022-08-12T15:51:59.747Z,92.60
2022-08-12T15:54:30.896Z,92.50
2022-08-12T15:57:07.965Z,92.40
2022-08-12T16:00:02.365Z,92.80
2022-08-12T16:02:29.903Z,93.00
2022-08-12T16:04:58.938Z,93.30
2022-08-12T16:07:31.249Z,92.90
2022-08-12T16:10:08.736Z,93.30
2022-08-12T16:12:55.108Z,93.10
2022-08-12T16:15:26.241Z,93.30
2022-08-12T16:18:18.704Z,93.20
2022-08-12T16:20:46.405Z,93.10
2022-08-12T16:23:36.239Z,93.30
2022-08-12T16:26:15.234Z,93.40
2022-08-12T16:28:49.069Z,93.40
2022-08-12T16:31:23.112Z,93.60
2022-08-12T16:33:59.001Z,93.80
2022-08-12T16:36:28.895Z,94.00
2022-08-12T16:38:57.541Z,94.10
2022-08-12T16:41:38.021Z,93.90
2022-08-12T16:44:09.576Z,93.60
2022-08-12T16:46:39.142Z,93.70
2022-08-12T16:49:13.011Z,94.00
2022-08-12T16:51:47.519Z,94.30
2022-08-12T16:54:17.348Z,94.20
2022-08-12T16:56:57.565Z,94.20
2022-08-12T16:59:31.186Z,94.20
2022-08-12T17:02:31.876Z,94.30
2022-08-12T17:05:05.596Z,94.70
2022-08-12T17:07:43.582Z,94.90
2022-08-12T17:10:18.221Z,94.60
2022-08-12T17:12:47.172Z,94.90
2022-08-12T17:15:50.430Z,95.00
2022-08-12T17:18:15.443Z,94.70
2022-08-12T17:20:55.266Z,95.20
2022-08-12T17:23:24.499Z,95.30
2022-08-12T17:25:53.826Z,95.40
2022-08-12T17:28:22.901Z,95.50
2022-08-12T17:30:59.624Z,95.40
2022-08-12T17:33:34.742Z,95.10
2022-08-12T17:36:06.775Z,95.10
2022-08-12T17:38:39.492Z,95.80
2022-08-12T17:41:22.638Z,95.50
2022-08-12T17:43:58.338Z,95.60
2022-08-12T17:46:33.696Z,95.90
2022-08-12T17:49:06.543Z,96.00
2022-08-12T17:52:02.268Z,96.30
2022-08-12T17:54:32.791Z,96.40
2022-08-12T17:57:02.354Z,96.50
2022-08-12T17:59:47.711Z,96.10
2022-08-12T18:02:22.572Z,96.40
2022-08-12T18:05:05.488Z,96.40
2022-08-12T18:07:39.270Z,96.20
2022-08-12T18:10:08.757Z,96.10
2022-08-12T18:12:51.067Z,96.10
2022-08-12T18:15:26.693Z,96.00
2022-08-12T18:18:17.358Z,95.80
2022-08-12T18:20:48.338Z,95.80
2022-08-12T18:23:24.190Z,95.70
2022-08-12T18:26:17.667Z,95.40
2022-08-12T18:28:48.158Z,96.00
2022-08-12T18:31:18.073Z,96.00
2022-08-12T18:33:47.451Z,96.00
2022-08-12T18:36:22.674Z,96.10
2022-08-12T18:38:56.259Z,96.40
2022-08-12T18:41:34.378Z,96.60
2022-08-12T18:44:10.392Z,96.70
2022-08-12T18:46:53.387Z,96.80
2022-08-12T18:49:31.998Z,97.00
2022-08-12T18:52:05.277Z,96.60
2022-08-12T18:54:36.319Z,97.10
2022-08-12T18:57:16.207Z,97.20
2022-08-12T19:00:01.487Z,97.40
2022-08-12T19:02:40.762Z,97.10
2022-08-12T19:05:11.919Z,96.90
2022-08-12T19:07:57.809Z,97.00
2022-08-12T19:10:31.051Z,96.70
2022-08-12T19:13:23.898Z,97.10
2022-08-12T19:15:58.256Z,97.30
2022-08-12T19:18:31.127Z,97.50
2022-08-12T19:21:06.398Z,97.80
2022-08-12T19:23:40.816Z,97.80
2022-08-12T19:26:12.959Z,97.70
2022-08-12T19:28:42.739Z,98.00
2022-08-12T19:31:45.186Z,97.60
2022-08-12T19:37:17.775Z,97.30
2022-08-12T19:40:08.723Z,97.30
2022-08-12T19:42:40.059Z,96.90
2022-08-12T19:45:12.684Z,96.80
2022-08-12T19:47:41.809Z,96.60
2022-08-12T19:50:11.337Z,96.50
2022-08-12T19:52:41.477Z,96.50
2022-08-12T19:55:11.616Z,96.70
2022-08-12T19:58:02.524Z,96.60
2022-08-12T20:00:34.889Z,96.70
2022-08-12T20:03:05.447Z,96.60
2022-08-12T20:06:05.327Z,96.60
2022-08-12T20:08:33.162Z,96.60
2022-08-12T20:12:13.651Z,96.60
2022-08-12T20:14:01.061Z,96.60
2022-08-12T20:17:02.002Z,96.60
2022-08-12T20:19:52.531Z,96.50
2022-08-12T20:22:24.565Z,96.40
2022-08-12T20:25:02.265Z,96.30
2022-08-12T20:28:04.425Z,96.20
2022-08-12T20:30:37.201Z,96.10
2022-08-12T20:33:18.712Z,96.00
2022-08-12T20:36:14.047Z,96.00
2022-08-12T20:38:41.464Z,96.00
2022-08-12T20:41:17.575Z,96.00
2022-08-12T20:43:52.439Z,96.00
2022-08-12T20:46:22.286Z,96.20
2022-08-12T20:48:55.220Z,96.30
2022-08-12T20:51:27.542Z,96.20
2022-08-12T20:53:58.832Z,96.00
2022-08-12T20:56:38.307Z,95.60
2022-08-12T20:59:11.439Z,96.00
2022-08-12T21:01:46.371Z,96.00
2022-08-12T21:04:35.747Z,96.00
2022-08-12T21:07:08.997Z,96.00
2022-08-12T21:09:43.023Z,96.00
2022-08-12T21:12:31.368Z,95.80
2022-08-12T21:15:17.571Z,96.00
2022-08-12T21:18:11.252Z,95.70
2022-08-12T21:20:54.403Z,95.50
2022-08-12T21:23:25.383Z,95.50
2022-08-12T21:26:01.643Z,95.50
2022-08-12T21:28:32.153Z,95.70
2022-08-12T21:32:35.094Z,95.70
2022-08-12T21:34:08.172Z,95.50
2022-08-12T21:36:43.093Z,95.50
2022-08-12T21:39:20.573Z,95.50
2022-08-12T21:41:54.825Z,95.50
2022-08-12T21:45:47.775Z,95.50
2022-08-12T21:47:21.827Z,95.30
2022-08-12T21:50:04.005Z,95.20
2022-08-12T21:52:40.994Z,95.10
2022-08-12T21:55:18.260Z,95.10
2022-08-12T21:57:53.914Z,95.10
2022-08-12T22:00:32.599Z,95.20
2022-08-12T22:03:25.118Z,95.30
2022-08-12T22:06:30.917Z,95.40
2022-08-12T22:09:15.623Z,95.50
2022-08-12T22:11:56.199Z,95.40
2022-08-12T22:14:29.422Z,95.50
2022-08-12T22:17:00.922Z,95.60
2022-08-12T22:19:35.095Z,95.70
2022-08-12T22:22:04.908Z,95.80
2022-08-12T22:24:34.289Z,95.90
2022-08-12T22:27:22.955Z,96.00
2022-08-12T22:30:16.551Z,96.00
2022-08-12T22:32:51.338Z,96.10
2022-08-12T22:35:47.423Z,96.30
2022-08-12T22:38:25.624Z,96.30
2022-08-12T22:40:55.953Z,96.50
2022-08-12T22:44:00.925Z,96.50
2022-08-12T22:46:33.972Z,96.50
2022-08-12T22:49:02.651Z,96.50
2022-08-12T22:51:38.319Z,96.50
2022-08-12T22:54:35.486Z,96.50
2022-08-12T22:57:05.305Z,96.50
2022-08-12T22:59:55.018Z,96.50
2022-08-12T23:02:29.124Z,96.50
2022-08-12T23:05:01.333Z,96.50
2022-08-12T23:07:36.247Z,96.60
2022-08-12T23:10:18.381Z,96.40
2022-08-12T23:13:06.115Z,96.30
2022-08-12T23:15:38.326Z,96.30
2022-08-12T23:18:17.074Z,96.50
2022-08-12T23:20:45.611Z,96.60
2022-08-12T23:23:19.867Z,96.60
2022-08-12T23:25:54.860Z,96.60
2022-08-12T23:28:42.249Z,96.60
2022-08-12T23:31:11.232Z,96.70
2022-08-12T23:34:01.876Z,96.80
2022-08-12T23:36:39.052Z,96.90
2022-08-12T23:40:13.370Z,96.90
2022-08-12T23:42:18.087Z,97.00
2022-08-12T23:44:52.448Z,97.00
2022-08-12T23:47:22.781Z,97.00
2022-08-12T23:49:58.519Z,96.80
2022-08-12T23:52:34.077Z,96.80
2022-08-12T23:55:23.251Z,96.70
2022-08-12T23:58:21.798Z,97.00
